createdAt,value
2019-01-15T00:01:29.061Z,84.00
2019-01-15T00:03:57.690Z,84.38
2019-01-15T00:06:26.347Z,84.81
2019-01-15T00:08:55.042Z,85.41
2019-01-15T00:11:23.693Z,86.01
2019-01-15T00:13:52.294Z,86.34
2019-01-15T00:16:21.011Z,87.08
2019-01-15T00:18:49.656Z,87.06
2019-01-15T00:21:18.293Z,86.94
2019-01-15T00:23:46.891Z,86.93
2019-01-15T00:26:15.694Z,86.75
2019-01-15T00:28:44.310Z,86.00
2019-01-15T00:31:12.948Z,86.35
2019-01-15T00:33:41.606Z,86.57
2019-01-15T00:36:10.311Z,87.20
2019-01-15T00:38:38.975Z,87.60
2019-01-15T00:41:07.633Z,88.11
2019-01-15T00:43:36.219Z,88.21
2019-01-15T00:46:04.928Z,88.15
2019-01-15T00:48:33.512Z,87.47
2019-01-15T00:51:02.140Z,87.15
2019-01-15T00:53:30.769Z,87.88
2019-01-15T00:55:59.389Z,87.35
2019-01-15T00:58:28.034Z,87.25
2019-01-15T01:00:56.798Z,87.12
2019-01-15T01:03:25.501Z,87.53
2019-01-15T01:05:54.124Z,88.10
2019-01-15T01:08:22.745Z,88.27
2019-01-15T01:11:10.619Z,87.87
2019-01-15T01:13:39.237Z,88.14
2019-01-15T01:16:07.919Z,87.52
2019-01-15T01:18:36.562Z,88.22
2019-01-15T01:21:05.419Z,88.29
2019-01-15T01:23:34.102Z,87.85
2019-01-15T01:26:02.887Z,88.00
2019-01-15T01:28:31.511Z,88.01
2019-01-15T01:31:00.307Z,87.70
2019-01-15T01:33:28.979Z,87.49
2019-01-15T01:35:57.610Z,86.98
2019-01-15T01:38:26.236Z,86.62
2019-01-15T01:40:54.833Z,86.62
2019-01-15T01:43:23.501Z,86.43
2019-01-15T01:45:52.108Z,86.14
2019-01-15T01:48:20.745Z,85.80
2019-01-15T01:50:49.354Z,85.79
2019-01-15T01:53:18.065Z,85.94
2019-01-15T01:55:46.786Z,86.21
2019-01-15T01:58:15.409Z,86.52
2019-01-15T02:00:44.019Z,86.24
2019-01-15T02:03:12.608Z,86.56
2019-01-15T02:05:41.209Z,87.05
2019-01-15T02:08:09.952Z,86.76
2019-01-15T02:10:38.638Z,87.13
2019-01-15T02:13:07.298Z,86.88
2019-01-15T02:15:35.896Z,86.88
2019-01-15T02:18:23.726Z,87.11
2019-01-15T02:20:52.331Z,86.92
2019-01-15T02:23:20.972Z,86.82
2019-01-15T02:25:51.700Z,87.63
2019-01-15T02:28:20.358Z,88.26
2019-01-15T02:30:49.072Z,88.04
2019-01-15T02:33:17.728Z,87.98
2019-01-15T02:35:46.420Z,88.53
2019-01-15T02:38:15.044Z,88.38
2019-01-15T02:40:43.651Z,88.50
2019-01-15T02:43:12.280Z,88.26
2019-01-15T02:45:40.866Z,88.21
2019-01-15T02:48:09.578Z,87.74
2019-01-15T02:50:38.187Z,88.19
2019-01-15T02:53:06.803Z,88.05
2019-01-15T02:55:35.410Z,88.43
2019-01-15T02:58:04.095Z,88.21
2019-01-15T03:00:32.735Z,87.55
2019-01-15T03:03:01.423Z,86.59
2019-01-15T03:05:30.123Z,87.13
2019-01-15T03:07:58.700Z,86.60
2019-01-15T03:10:27.356Z,86.31
2019-01-15T03:12:56.762Z,86.51
2019-01-15T03:15:26.308Z,86.80
2019-01-15T03:17:54.999Z,86.31
2019-01-15T03:20:23.605Z,85.08
2019-01-15T03:22:52.294Z,85.98
2019-01-15T03:25:20.984Z,86.55
2019-01-15T03:27:49.594Z,87.35
2019-01-15T03:30:23.278Z,87.35
2019-01-15T03:35:36.559Z,86.92
2019-01-15T03:38:05.222Z,86.45
2019-01-15T03:40:33.821Z,86.32
2019-01-15T03:43:03.805Z,86.77
2019-01-15T03:45:32.763Z,86.28
2019-01-15T03:48:01.468Z,86.35
2019-01-15T03:50:30.038Z,86.56
2019-01-15T03:55:46.470Z,86.45
2019-01-15T03:58:15.059Z,86.12
2019-01-15T04:00:43.681Z,86.32
2019-01-15T04:03:12.365Z,86.62
2019-01-15T04:05:41.016Z,86.49
2019-01-15T04:08:09.723Z,86.67
2019-01-15T04:10:38.401Z,86.58
2019-01-15T04:13:11.485Z,87.20
2019-01-15T04:15:37.367Z,87.21
2019-01-15T04:18:06.030Z,87.16
2019-01-15T04:20:34.623Z,86.96
2019-01-15T04:23:03.239Z,87.21
2019-01-15T04:25:31.953Z,86.51
2019-01-15T04:28:40.414Z,87.04
2019-01-15T04:31:09.058Z,87.38
2019-01-15T04:33:37.668Z,87.24
2019-01-15T04:36:06.286Z,87.48
2019-01-15T04:38:34.893Z,87.29
2019-01-15T04:41:03.496Z,87.07
2019-01-15T04:43:32.122Z,87.17
2019-01-15T04:46:00.868Z,87.53
2019-01-15T04:48:29.541Z,87.48
2019-01-15T04:50:58.142Z,87.90
2019-01-15T04:53:26.754Z,87.80
2019-01-15T04:55:55.381Z,87.98
2019-01-15T04:58:24.035Z,88.09
2019-01-15T05:00:52.713Z,88.70
2019-01-15T05:03:21.471Z,88.43
2019-01-15T05:05:50.097Z,88.48
2019-01-15T05:08:18.717Z,89.29
2019-01-15T05:10:47.331Z,89.57
2019-01-15T05:13:16.061Z,89.49
2019-01-15T05:15:44.739Z,89.25
2019-01-15T05:18:13.352Z,88.90
2019-01-15T05:20:41.970Z,88.52
2019-01-15T05:23:10.665Z,88.91
2019-01-15T05:25:39.174Z,89.24
2019-01-15T05:28:07.802Z,88.77
2019-01-15T05:30:36.423Z,89.10
2019-01-15T05:33:05.231Z,89.30
2019-01-15T05:35:33.910Z,90.21
2019-01-15T05:38:02.597Z,89.72
2019-01-15T05:40:31.258Z,90.02
2019-01-15T05:42:59.882Z,90.01
2019-01-15T05:51:19.842Z,89.04
2019-01-15T05:53:48.460Z,89.96
2019-01-15T05:56:17.076Z,89.47
2019-01-15T05:58:45.758Z,89.53
2019-01-15T06:01:14.431Z,89.07
2019-01-15T06:03:43.084Z,89.01
2019-01-15T06:06:11.825Z,89.41
2019-01-15T06:08:40.460Z,89.67
2019-01-15T06:11:09.101Z,89.46
2019-01-15T06:13:42.661Z,89.50
2019-01-15T06:16:08.178Z,89.84
2019-01-15T06:18:36.801Z,90.21
2019-01-15T06:21:05.529Z,90.04
2019-01-15T06:23:34.187Z,90.25
2019-01-15T06:26:02.948Z,90.41
2019-01-15T06:28:31.685Z,90.08
2019-01-15T06:31:00.447Z,89.87
2019-01-15T06:33:29.172Z,90.79
2019-01-15T06:35:57.789Z,90.14
2019-01-15T06:38:26.389Z,90.64
2019-01-15T06:40:55.087Z,91.35
2019-01-15T06:43:23.706Z,91.47
2019-01-15T06:45:52.421Z,91.39
2019-01-15T06:48:21.109Z,91.27
2019-01-15T06:50:49.848Z,91.25
2019-01-15T06:53:18.522Z,90.71
2019-01-15T06:55:47.296Z,91.23
2019-01-15T06:58:16.039Z,91.47
2019-01-15T07:00:44.651Z,91.67
2019-01-15T07:03:13.343Z,91.22
2019-01-15T07:05:41.976Z,91.89
2019-01-15T07:08:10.763Z,91.64
2019-01-15T07:10:39.889Z,91.95
2019-01-15T07:13:08.524Z,91.98
2019-01-15T07:15:37.213Z,92.00
2019-01-15T07:18:05.888Z,91.37
2019-01-15T07:20:34.495Z,91.27
2019-01-15T07:23:03.295Z,91.61
2019-01-15T07:25:31.948Z,91.88
2019-01-15T07:28:01.364Z,92.26
2019-01-15T07:30:53.814Z,92.05
2019-01-15T07:33:27.405Z,90.92
2019-01-15T07:35:56.143Z,90.55
2019-01-15T07:38:24.780Z,90.58
2019-01-15T07:40:53.466Z,90.85
2019-01-15T07:43:22.262Z,90.82
2019-01-15T07:45:51.049Z,91.19
2019-01-15T07:48:20.104Z,91.53
2019-01-15T07:50:48.813Z,91.58
2019-01-15T07:53:17.526Z,91.47
2019-01-15T07:55:46.125Z,91.58
2019-01-15T07:58:14.740Z,91.99
2019-01-15T08:00:43.422Z,91.30
2019-01-15T08:03:12.093Z,91.59
2019-01-15T08:05:41.601Z,91.29
2019-01-15T08:08:10.562Z,90.93
2019-01-15T08:10:39.241Z,90.65
2019-01-15T08:13:07.855Z,90.54
2019-01-15T08:15:36.579Z,90.82
2019-01-15T08:21:11.601Z,91.28
2019-01-15T08:23:40.477Z,91.12
2019-01-15T08:26:09.340Z,91.16
2019-01-15T08:28:38.116Z,90.74
2019-01-15T08:31:06.959Z,89.74
2019-01-15T08:33:35.855Z,90.25
2019-01-15T08:36:04.695Z,90.03
2019-01-15T08:38:35.988Z,89.92
2019-01-15T08:41:04.875Z,89.36
2019-01-15T08:43:35.734Z,88.51
2019-01-15T08:46:04.578Z,89.30
2019-01-15T08:56:22.040Z,89.72
2019-01-15T09:01:52.134Z,89.46
2019-01-15T09:04:20.867Z,89.50
2019-01-15T09:06:49.464Z,89.12
2019-01-15T09:09:18.090Z,88.09
2019-01-15T09:11:46.733Z,87.77
2019-01-15T09:14:15.437Z,87.24
2019-01-15T09:16:44.051Z,86.68
2019-01-15T09:19:12.736Z,85.89
2019-01-15T09:21:41.427Z,85.25
2019-01-15T09:24:10.550Z,85.31
2019-01-15T09:26:39.225Z,86.02
2019-01-15T09:29:08.148Z,85.98
2019-01-15T09:31:36.828Z,85.70
2019-01-15T09:34:05.599Z,86.21
2019-01-15T09:36:34.295Z,86.81
2019-01-15T09:39:21.905Z,86.50
2019-01-15T09:41:50.583Z,86.85
2019-01-15T09:44:19.280Z,86.79
2019-01-15T09:46:47.944Z,86.29
2019-01-15T09:49:16.623Z,86.63
2019-01-15T09:51:52.016Z,86.88
2019-01-15T09:54:20.792Z,86.76
2019-01-15T09:56:49.442Z,86.36
2019-01-15T09:59:18.053Z,87.05
2019-01-15T10:01:46.677Z,86.82
2019-01-15T10:04:15.274Z,87.32
2019-01-15T10:06:43.919Z,86.64
2019-01-15T10:09:12.613Z,86.24
2019-01-15T10:11:41.327Z,86.55
2019-01-15T10:14:10.009Z,86.11
2019-01-15T10:16:38.725Z,85.91
2019-01-15T10:19:07.341Z,86.34
2019-01-15T10:21:35.998Z,86.71
2019-01-15T10:24:04.847Z,86.33
2019-01-15T10:26:33.485Z,86.47
2019-01-15T10:29:02.172Z,86.30
2019-01-15T10:32:09.384Z,86.29
2019-01-15T10:37:39.546Z,85.29
2019-01-15T10:40:08.353Z,84.87
2019-01-15T10:42:36.992Z,84.58
2019-01-15T10:45:06.887Z,84.79
2019-01-15T10:47:35.502Z,85.00
2019-01-15T10:50:05.190Z,85.29
2019-01-15T10:52:33.886Z,84.71
2019-01-15T10:55:02.524Z,85.10
2019-01-15T10:57:31.212Z,84.86
2019-01-15T10:59:59.887Z,84.43
2019-01-15T11:02:28.524Z,83.80
2019-01-15T11:04:57.147Z,84.50
2019-01-15T11:07:25.830Z,84.72
2019-01-15T11:09:54.613Z,84.15
2019-01-15T11:12:23.333Z,84.33
2019-01-15T11:17:41.592Z,84.14
2019-01-15T11:23:25.610Z,83.02
2019-01-15T11:25:54.359Z,83.95
2019-01-15T11:28:22.997Z,84.21
2019-01-15T11:30:51.684Z,84.37
2019-01-15T11:33:20.390Z,84.52
2019-01-15T11:35:49.062Z,83.72
2019-01-15T11:38:17.727Z,83.40
2019-01-15T11:40:46.420Z,83.44
2019-01-15T11:43:15.034Z,83.37
2019-01-15T11:45:43.790Z,83.15
2019-01-15T11:48:12.400Z,83.21
2019-01-15T11:50:41.045Z,82.35
2019-01-15T11:53:09.721Z,83.29
2019-01-15T11:55:38.438Z,83.12
2019-01-15T11:58:07.141Z,83.52
2019-01-15T12:00:54.742Z,82.45
2019-01-15T12:03:42.449Z,82.35
2019-01-15T12:06:24.603Z,83.45
2019-01-15T12:09:04.345Z,82.39
2019-01-15T12:11:51.977Z,81.96
2019-01-15T12:14:39.682Z,81.80
2019-01-15T12:17:27.367Z,81.24
2019-01-15T12:20:14.994Z,82.16
2019-01-15T12:23:02.708Z,81.35
2019-01-15T12:25:50.379Z,81.21
2019-01-15T12:28:38.100Z,81.73
2019-01-15T12:31:25.796Z,80.65
2019-01-15T12:34:13.445Z,80.67
2019-01-15T12:37:01.131Z,80.75
2019-01-15T12:39:48.831Z,80.71
2019-01-15T12:42:36.469Z,79.50
2019-01-15T12:45:27.505Z,80.37
2019-01-15T12:48:15.249Z,80.21
2019-01-15T12:51:02.878Z,79.34
2019-01-15T12:53:50.595Z,79.94
2019-01-15T12:56:38.340Z,79.11
2019-01-15T12:59:17.013Z,79.15
2019-01-15T13:04:12.228Z,79.41
2019-01-15T13:06:59.988Z,78.48
2019-01-15T13:09:47.601Z,78.46
2019-01-15T13:12:35.277Z,78.83
2019-01-15T13:15:26.152Z,78.39
2019-01-15T13:18:12.733Z,78.43
2019-01-15T13:21:00.423Z,78.18
2019-01-15T13:23:48.296Z,78.12
2019-01-15T13:26:35.307Z,78.69
2019-01-15T13:29:23.210Z,78.06
2019-01-15T13:32:10.827Z,78.13
2019-01-15T13:34:49.150Z,78.00
2019-01-15T13:37:36.765Z,79.09
2019-01-15T13:40:26.959Z,78.87
2019-01-15T13:43:14.783Z,79.80
2019-01-15T13:46:00.746Z,79.73
2019-01-15T13:51:45.767Z,79.02
2019-01-15T13:54:33.373Z,79.77
2019-01-15T13:57:21.137Z,80.10
2019-01-15T14:00:08.798Z,80.74
2019-01-15T14:02:56.440Z,79.86
2019-01-15T14:05:41.447Z,80.62
2019-01-15T14:08:29.069Z,79.68
2019-01-15T14:11:16.723Z,78.90
2019-01-15T14:14:04.353Z,79.48
2019-01-15T14:16:52.082Z,78.87
2019-01-15T14:19:39.758Z,80.17
2019-01-15T14:22:27.486Z,79.56
2019-01-15T14:25:15.152Z,79.87
2019-01-15T14:28:03.155Z,80.21
2019-01-15T14:30:50.858Z,80.09
2019-01-15T14:33:38.575Z,80.27
2019-01-15T14:36:26.210Z,80.68
2019-01-15T14:39:13.867Z,81.28
2019-01-15T14:42:01.495Z,80.50
2019-01-15T14:44:49.227Z,80.65
2019-01-15T14:47:36.888Z,80.73
2019-01-15T14:53:26.583Z,80.04
2019-01-15T14:56:03.952Z,79.46
2019-01-15T14:58:51.660Z,79.77
2019-01-15T15:01:31.089Z,78.97
2019-01-15T15:04:18.713Z,79.95
2019-01-15T15:07:06.396Z,78.07
2019-01-15T15:09:45.411Z,78.40
2019-01-15T15:12:33.059Z,77.22
2019-01-15T15:15:12.604Z,77.61
2019-01-15T15:18:00.230Z,77.34
2019-01-15T15:20:51.054Z,77.28
2019-01-15T15:23:37.512Z,77.41
2019-01-15T15:26:25.379Z,77.50
2019-01-15T15:29:13.095Z,78.15
2019-01-15T15:32:00.813Z,77.16
2019-01-15T15:34:48.546Z,76.93
2019-01-15T15:37:27.682Z,77.84
2019-01-15T15:40:15.311Z,77.39
2019-01-15T15:43:02.943Z,77.14
2019-01-15T15:45:50.584Z,77.05
2019-01-15T15:48:38.215Z,77.62
2019-01-15T15:51:25.934Z,78.25
2019-01-15T15:54:13.555Z,77.03
2019-01-15T15:57:01.225Z,77.12
2019-01-15T15:59:48.851Z,77.21
2019-01-15T16:02:36.565Z,77.09
2019-01-15T16:05:45.265Z,77.72
2019-01-15T16:08:33.233Z,78.96
2019-01-15T16:11:20.858Z,79.91
2019-01-15T16:14:08.665Z,79.66
2019-01-15T16:16:56.294Z,80.26
2019-01-15T16:19:44.121Z,81.40
2019-01-15T16:25:33.304Z,80.88
2019-01-15T16:28:09.401Z,80.74
2019-01-15T16:30:57.107Z,81.07
2019-01-15T16:33:44.753Z,81.07
2019-01-15T16:36:32.505Z,80.94
2019-01-15T16:39:20.216Z,81.99
2019-01-15T16:42:02.034Z,82.48
2019-01-15T16:44:49.720Z,83.19
2019-01-15T16:47:37.398Z,82.04
2019-01-15T16:50:16.978Z,81.74
2019-01-15T16:53:04.612Z,81.42
2019-01-15T16:55:47.882Z,81.17
2019-01-15T16:58:36.101Z,79.88
2019-01-15T17:01:23.978Z,80.32
2019-01-15T17:07:09.526Z,80.46
2019-01-15T17:09:58.059Z,81.10
2019-01-15T17:12:46.005Z,80.93
2019-01-15T17:15:33.934Z,81.21
2019-01-15T17:18:22.747Z,81.75
2019-01-15T17:21:10.766Z,82.79
2019-01-15T17:24:02.334Z,82.66
2019-01-15T17:26:50.591Z,82.69
2019-01-15T17:29:39.725Z,82.89
2019-01-15T17:32:39.005Z,83.03
2019-01-15T17:35:28.767Z,83.30
2019-01-15T17:38:17.387Z,83.07
2019-01-15T17:41:05.123Z,82.84
2019-01-15T17:47:11.296Z,83.52
2019-01-15T17:50:19.470Z,83.50
2019-01-15T17:56:05.254Z,84.07
2019-01-15T17:59:14.437Z,84.53
2019-01-15T18:01:58.621Z,84.69
2019-01-15T18:04:47.154Z,85.35
2019-01-15T18:10:32.450Z,84.87
2019-01-15T18:17:06.105Z,85.22
2019-01-15T18:19:21.832Z,85.16
2019-01-15T18:22:10.188Z,85.54
2019-01-15T18:24:59.190Z,85.77
2019-01-15T18:33:39.417Z,86.14
2019-01-15T18:36:46.478Z,85.92
2019-01-15T18:39:35.334Z,86.10
2019-01-15T18:42:25.419Z,86.45
2019-01-15T18:45:13.303Z,86.87
2019-01-15T18:48:04.095Z,86.43
2019-01-15T18:53:46.421Z,86.79
2019-01-15T18:59:31.121Z,86.66
2019-01-15T19:02:19.090Z,86.12
2019-01-15T19:05:09.890Z,86.46
2019-01-15T19:07:51.372Z,86.49
2019-01-15T19:10:58.304Z,86.50
2019-01-15T19:13:46.230Z,86.44
2019-01-15T19:16:33.987Z,87.12
2019-01-15T19:22:46.071Z,87.64
2019-01-15T19:28:31.553Z,88.48
2019-01-15T19:31:19.791Z,88.42
2019-01-15T19:34:07.911Z,88.31
2019-01-15T19:46:18.565Z,89.36
2019-01-15T19:48:59.707Z,89.97
2019-01-15T19:51:47.368Z,89.64
2019-01-15T19:54:38.122Z,89.42
2019-01-15T20:01:05.563Z,88.94
2019-01-15T20:03:47.020Z,88.91
2019-01-15T20:37:24.743Z,89.44
2019-01-15T20:45:35.868Z,88.38
2019-01-15T20:51:15.172Z,87.38
2019-01-15T20:56:58.659Z,86.90
2019-01-15T21:06:24.317Z,87.11
2019-01-15T21:12:40.392Z,86.05
2019-01-15T21:15:49.480Z,86.32
2019-01-15T21:21:42.709Z,86.66
2019-01-15T21:24:52.609Z,86.78
2019-01-15T21:30:41.544Z,87.50
2019-01-15T21:33:32.007Z,87.53
2019-01-15T21:36:21.096Z,87.71
2019-01-15T21:51:57.960Z,87.75
2019-01-15T21:54:48.248Z,88.36
2019-01-15T22:01:02.233Z,88.17
2019-01-15T22:13:11.549Z,88.88
2019-01-15T22:19:00.659Z,88.79
2019-01-15T22:28:01.940Z,89.34
2019-01-15T22:34:06.177Z,89.54
2019-01-15T22:43:18.780Z,87.97
2019-01-15T22:49:24.647Z,88.17
2019-01-15T22:52:13.143Z,88.21
2019-01-15T22:58:01.767Z,88.25
2019-01-15T23:01:09.204Z,87.97
2019-01-15T23:03:58.270Z,88.28
2019-01-15T23:09:43.153Z,88.37
2019-01-15T23:12:46.803Z,88.60
2019-01-15T23:15:34.559Z,88.54
2019-01-15T23:18:22.836Z,88.70
2019-01-15T23:21:12.327Z,89.08
2019-01-15T23:24:00.475Z,88.98
2019-01-15T23:30:03.035Z,89.04
2019-01-15T23:32:50.825Z,88.93
2019-01-15T23:35:40.723Z,88.98
2019-01-15T23:38:29.478Z,89.20
2019-01-15T23:41:18.332Z,87.99
2019-01-15T23:44:09.318Z,89.17
2019-01-15T23:46:46.210Z,89.46
2019-01-15T23:49:33.873Z,89.84
2019-01-15T23:55:15.298Z,91.07
2019-01-15T23:58:02.992Z,90.77
